createdAt,value
2023-01-08T00:00:30.426Z,39.90
2023-01-08T00:03:18.474Z,32.40
2023-01-08T00:05:46.210Z,33.50
2023-01-08T00:08:13.942Z,42.10
2023-01-08T00:10:41.709Z,41.20
2023-01-08T00:13:09.310Z,39.00
2023-01-08T00:15:36.961Z,35.60
2023-01-08T00:18:06.752Z,43.60
2023-01-08T00:20:34.743Z,41.20
2023-01-08T00:23:02.333Z,42.90
2023-01-08T00:25:29.970Z,40.60
2023-01-08T00:27:57.581Z,38.50
2023-01-08T00:30:25.246Z,32.10
2023-01-08T00:32:53.229Z,37.80
2023-01-08T00:35:20.843Z,35.80
2023-01-08T00:37:51.546Z,38.30
2023-01-08T00:40:19.143Z,38.50
2023-01-08T00:42:46.762Z,33.40
2023-01-08T00:45:14.639Z,40.80
2023-01-08T00:47:42.288Z,34.50
2023-01-08T00:50:10.552Z,37.80
2023-01-08T00:52:38.723Z,35.90
2023-01-08T00:55:07.040Z,44.00
2023-01-08T00:57:36.632Z,39.30
2023-01-08T01:00:06.519Z,36.50
2023-01-08T01:02:37.028Z,35.90
2023-01-08T01:05:05.928Z,36.60
2023-01-08T01:07:34.187Z,36.00
2023-01-08T01:10:01.865Z,35.70
2023-01-08T01:12:29.465Z,37.10
2023-01-08T01:14:57.137Z,38.30
2023-01-08T01:17:25.142Z,38.80
2023-01-08T01:19:52.728Z,36.50
2023-01-08T01:22:20.344Z,34.60
2023-01-08T01:24:47.970Z,34.10
2023-01-08T01:27:15.588Z,33.80
2023-01-08T01:29:43.244Z,38.30
2023-01-08T01:32:10.829Z,35.40
2023-01-08T01:34:38.472Z,33.40
2023-01-08T01:37:06.042Z,32.60
2023-01-08T01:39:33.724Z,37.20
2023-01-08T01:42:01.367Z,35.00
2023-01-08T01:44:44.715Z,35.00
2023-01-08T01:47:31.132Z,37.50
2023-01-08T01:50:17.185Z,33.20
2023-01-08T01:52:50.550Z,35.60
2023-01-08T01:55:18.451Z,36.50
2023-01-08T01:57:58.304Z,35.20
2023-01-08T02:00:27.487Z,35.90
2023-01-08T02:02:55.805Z,36.70
2023-01-08T02:05:33.971Z,33.00
2023-01-08T02:08:11.069Z,37.90
2023-01-08T02:10:48.542Z,35.80
2023-01-08T02:13:46.719Z,33.40
2023-01-08T02:16:22.212Z,31.90
2023-01-08T02:19:13.940Z,31.40
2023-01-08T02:22:00.921Z,34.80
2023-01-08T02:24:56.614Z,34.20
2023-01-08T02:27:27.974Z,30.70
2023-01-08T02:29:57.091Z,33.60
2023-01-08T02:32:28.655Z,30.30
2023-01-08T02:37:24.045Z,35.80
2023-01-08T02:40:13.916Z,31.30
2023-01-08T02:42:56.681Z,34.40
2023-01-08T02:45:30.170Z,29.40
2023-01-08T02:48:14.894Z,34.30
2023-01-08T02:50:58.973Z,34.60
2023-01-08T02:53:30.079Z,27.20
2023-01-08T02:56:08.221Z,30.80
2023-01-08T02:58:38.553Z,32.10
2023-01-08T03:01:09.465Z,34.00
2023-01-08T03:03:41.466Z,29.90
2023-01-08T03:06:12.773Z,39.00
2023-01-08T03:08:43.830Z,33.00
2023-01-08T03:11:14.561Z,35.60
2023-01-08T03:14:04.306Z,33.20
2023-01-08T03:16:45.479Z,27.30
2023-01-08T03:19:19.564Z,33.50
2023-01-08T03:21:48.076Z,34.90
2023-01-08T03:24:28.578Z,35.50
2023-01-08T03:26:59.547Z,35.50
2023-01-08T03:29:28.079Z,34.80
2023-01-08T03:32:01.720Z,36.30
2023-01-08T03:34:33.787Z,33.80
2023-01-08T03:37:05.112Z,36.60
2023-01-08T03:39:46.175Z,36.10
2023-01-08T03:42:17.170Z,33.20
2023-01-08T03:44:44.752Z,36.90
2023-01-08T03:47:13.435Z,32.30
2023-01-08T03:49:43.596Z,35.20
2023-01-08T03:52:29.067Z,35.20
2023-01-08T03:54:56.899Z,35.30
2023-01-08T03:57:24.741Z,34.70
2023-01-08T03:59:53.818Z,30.50
2023-01-08T04:02:21.590Z,33.90
2023-01-08T04:04:49.388Z,37.60
2023-01-08T04:07:17.114Z,37.90
2023-01-08T04:09:44.790Z,32.70
2023-01-08T04:12:12.945Z,26.90
2023-01-08T04:14:40.722Z,34.50
2023-01-08T04:17:15.803Z,35.30
2023-01-08T04:19:43.388Z,27.30
2023-01-08T04:22:11.763Z,31.60
2023-01-08T04:24:39.402Z,28.60
2023-01-08T04:27:07.317Z,32.20
2023-01-08T04:29:35.230Z,34.70
2023-01-08T04:32:02.922Z,37.50
2023-01-08T04:34:30.479Z,35.80
2023-01-08T04:36:58.947Z,34.90
2023-01-08T04:39:26.559Z,37.00
2023-01-08T04:41:54.293Z,36.00
2023-01-08T04:44:21.932Z,34.10
2023-01-08T04:46:49.630Z,35.20
2023-01-08T04:49:17.311Z,30.70
2023-01-08T04:51:45.075Z,33.40
2023-01-08T04:54:13.059Z,33.00
2023-01-08T04:56:40.697Z,32.70
2023-01-08T04:59:08.673Z,33.40
2023-01-08T05:01:36.616Z,33.80
2023-01-08T05:04:05.358Z,33.10
2023-01-08T05:06:33.109Z,31.70
2023-01-08T05:09:00.870Z,31.30
2023-01-08T05:11:28.515Z,34.00
2023-01-08T05:13:56.252Z,29.60
2023-01-08T05:16:24.084Z,36.10
2023-01-08T05:18:51.766Z,31.90
2023-01-08T05:21:19.424Z,31.40
2023-01-08T05:23:47.699Z,27.80
2023-01-08T05:26:16.653Z,31.20
2023-01-08T05:28:44.279Z,35.10
2023-01-08T05:31:12.084Z,31.70
2023-01-08T05:33:40.524Z,28.70
2023-01-08T05:36:10.002Z,30.70
2023-01-08T05:38:38.376Z,32.70
2023-01-08T05:41:06.707Z,32.00
2023-01-08T05:43:35.350Z,29.90
2023-01-08T05:46:04.119Z,33.30
2023-01-08T05:48:34.327Z,28.40
2023-01-08T05:51:02.577Z,29.50
2023-01-08T05:53:30.874Z,29.30
2023-01-08T05:56:10.029Z,30.20
2023-01-08T05:58:38.440Z,29.60
2023-01-08T06:01:14.789Z,27.60
2023-01-08T06:03:42.652Z,30.20
2023-01-08T06:06:12.019Z,29.20
2023-01-08T06:08:39.905Z,33.50
2023-01-08T06:11:08.951Z,29.60
2023-01-08T06:13:36.611Z,28.80
2023-01-08T06:16:04.618Z,31.50
2023-01-08T06:18:32.529Z,27.80
2023-01-08T06:21:01.453Z,31.80
2023-01-08T06:23:29.073Z,30.20
2023-01-08T06:25:58.554Z,26.90
2023-01-08T06:28:26.956Z,32.90
2023-01-08T06:30:57.128Z,30.40
2023-01-08T06:33:24.839Z,32.70
2023-01-08T06:35:52.605Z,24.30
2023-01-08T06:38:20.481Z,28.80
2023-01-08T06:40:48.103Z,34.10
2023-01-08T06:43:15.707Z,31.10
2023-01-08T06:45:43.332Z,33.90
2023-01-08T06:48:10.971Z,31.90
2023-01-08T06:50:38.711Z,30.10
2023-01-08T06:53:06.300Z,34.80
2023-01-08T06:55:33.868Z,31.70
2023-01-08T06:58:01.526Z,29.00
2023-01-08T07:00:29.174Z,32.50
2023-01-08T07:02:56.901Z,37.70
2023-01-08T07:05:24.826Z,31.20
2023-01-08T07:07:52.634Z,30.80
2023-01-08T07:10:20.369Z,31.10
2023-01-08T07:12:48.875Z,34.30
2023-01-08T07:15:16.928Z,32.40
2023-01-08T07:17:44.552Z,31.30
2023-01-08T07:20:12.143Z,33.40
2023-01-08T07:22:39.787Z,34.10
2023-01-08T07:25:08.010Z,33.20
2023-01-08T07:27:35.915Z,28.70
2023-01-08T07:30:03.897Z,35.20
2023-01-08T07:32:31.570Z,31.00
2023-01-08T07:34:59.305Z,32.30
2023-01-08T07:37:27.002Z,31.30
2023-01-08T07:39:54.606Z,32.80
2023-01-08T07:42:22.242Z,35.40
2023-01-08T07:44:49.871Z,34.30
2023-01-08T07:47:17.559Z,31.60
2023-01-08T07:49:45.194Z,36.20
2023-01-08T07:52:12.883Z,27.20
2023-01-08T07:54:40.698Z,26.90
2023-01-08T07:57:08.574Z,31.50
2023-01-08T07:59:36.242Z,28.50
2023-01-08T08:02:04.996Z,33.00
2023-01-08T08:04:32.758Z,28.70
2023-01-08T08:07:00.365Z,30.60
2023-01-08T08:09:28.233Z,31.20
2023-01-08T08:11:55.797Z,29.30
2023-01-08T08:14:23.412Z,32.00
2023-01-08T08:16:51.041Z,30.50
2023-01-08T08:19:18.650Z,29.70
2023-01-08T08:21:47.383Z,33.50
2023-01-08T08:24:15.000Z,31.10
2023-01-08T08:26:42.626Z,27.60
2023-01-08T08:29:10.884Z,28.00
2023-01-08T08:31:38.607Z,30.70
2023-01-08T08:34:06.303Z,32.90
2023-01-08T08:36:34.061Z,30.70
2023-01-08T08:39:03.454Z,34.00
2023-01-08T08:41:31.149Z,30.00
2023-01-08T08:43:58.794Z,32.20
2023-01-08T08:46:26.493Z,28.70
2023-01-08T08:48:54.143Z,31.10
2023-01-08T08:51:21.832Z,31.10
2023-01-08T08:53:49.481Z,28.00
2023-01-08T08:56:17.332Z,31.40
2023-01-08T08:58:45.264Z,28.50
2023-01-08T09:01:12.957Z,30.90
2023-01-08T09:03:40.750Z,30.40
2023-01-08T09:06:14.361Z,30.70
2023-01-08T09:08:41.960Z,33.30
2023-01-08T09:11:09.853Z,29.60
2023-01-08T09:13:38.422Z,30.30
2023-01-08T09:16:06.373Z,27.90
2023-01-08T09:18:34.026Z,32.50
2023-01-08T09:21:08.433Z,27.40
2023-01-08T09:23:36.195Z,32.00
2023-01-08T09:26:05.114Z,32.20
2023-01-08T09:28:33.168Z,28.60
2023-01-08T09:31:02.657Z,28.30
2023-01-08T09:33:30.870Z,29.00
2023-01-08T09:35:58.652Z,28.00
2023-01-08T09:38:28.847Z,27.00
2023-01-08T09:41:03.602Z,31.60
2023-01-08T09:43:35.039Z,25.00
2023-01-08T09:46:06.282Z,26.60
2023-01-08T09:48:39.528Z,26.60
2023-01-08T09:51:18.493Z,27.90
2023-01-08T09:53:52.246Z,26.90
2023-01-08T09:56:20.174Z,24.30
2023-01-08T09:58:56.624Z,24.40
2023-01-08T10:01:28.622Z,24.30
2023-01-08T10:04:14.661Z,24.40
2023-01-08T10:06:50.560Z,26.10
2023-01-08T10:09:24.768Z,24.90
2023-01-08T10:11:54.903Z,24.90
2023-01-08T10:14:26.201Z,23.40
2023-01-08T10:17:17.177Z,22.70
2023-01-08T10:19:45.597Z,25.70
2023-01-08T10:22:17.767Z,24.30
2023-01-08T10:24:45.791Z,23.80
2023-01-08T10:27:16.945Z,25.30
2023-01-08T10:29:45.449Z,25.50
2023-01-08T10:32:20.013Z,24.10
2023-01-08T10:34:51.405Z,23.50
2023-01-08T10:37:41.560Z,22.20
2023-01-08T10:40:27.692Z,25.00
2023-01-08T10:42:56.843Z,23.20
2023-01-08T10:45:28.463Z,24.70
2023-01-08T10:50:31.661Z,25.20
2023-01-08T10:53:02.579Z,27.80
2023-01-08T10:55:32.844Z,25.00
2023-01-08T10:58:03.662Z,26.10
2023-01-08T11:00:34.163Z,42.70
2023-01-08T11:03:06.940Z,29.30
2023-01-08T11:05:39.881Z,31.40
2023-01-08T11:08:16.808Z,24.70
2023-01-08T11:10:53.925Z,24.80
2023-01-08T11:13:22.384Z,27.40
2023-01-08T11:16:10.600Z,28.20
2023-01-08T11:18:49.949Z,27.50
2023-01-08T11:21:27.158Z,26.00
2023-01-08T11:24:10.043Z,24.10
2023-01-08T11:26:40.401Z,30.70
2023-01-08T11:29:15.236Z,28.10
2023-01-08T11:32:20.668Z,24.50
2023-01-08T11:34:54.001Z,20.80
2023-01-08T11:37:26.353Z,25.10
2023-01-08T11:39:55.546Z,25.70
2023-01-08T11:42:45.123Z,25.10
2023-01-08T11:45:24.650Z,25.10
2023-01-08T11:48:17.280Z,27.60
2023-01-08T11:51:04.456Z,27.60
2023-01-08T11:53:43.364Z,29.10
2023-01-08T11:56:46.177Z,24.70
2023-01-08T11:59:13.770Z,27.90
2023-01-08T12:01:41.491Z,24.80
2023-01-08T12:04:27.173Z,25.20
2023-01-08T12:07:24.950Z,24.10
2023-01-08T12:10:02.681Z,25.90
2023-01-08T12:12:53.561Z,24.10
2023-01-08T12:15:27.439Z,24.10
2023-01-08T12:18:14.605Z,25.50
2023-01-08T12:21:06.243Z,26.60
2023-01-08T12:24:12.290Z,25.90
2023-01-08T12:26:48.678Z,26.60
2023-01-08T12:29:39.482Z,26.60
2023-01-08T12:32:13.057Z,31.20
2023-01-08T12:35:08.968Z,27.90
2023-01-08T12:38:04.037Z,29.40
2023-01-08T12:40:52.650Z,23.00
2023-01-08T12:43:29.476Z,23.30
2023-01-08T12:46:00.327Z,24.20
2023-01-08T12:48:34.213Z,21.80
2023-01-08T12:51:13.152Z,20.80
2023-01-08T12:53:55.562Z,16.70
2023-01-08T12:56:58.623Z,17.30
2023-01-08T13:00:14.403Z,13.20
2023-01-08T13:02:47.896Z,16.70
2023-01-08T13:05:18.319Z,14.80
2023-01-08T13:07:48.219Z,16.70
2023-01-08T13:10:28.138Z,15.90
2023-01-08T13:12:55.822Z,15.00
2023-01-08T13:15:29.040Z,20.30
2023-01-08T13:18:02.815Z,13.50
2023-01-08T13:20:32.272Z,14.60
2023-01-08T13:23:05.346Z,16.70
2023-01-08T13:25:38.168Z,13.40
2023-01-08T13:28:35.168Z,15.40
2023-01-08T13:31:26.215Z,16.80
2023-01-08T13:33:55.774Z,19.00
2023-01-08T13:36:25.026Z,16.50
2023-01-08T13:39:11.012Z,16.30
2023-01-08T13:41:45.605Z,13.10
2023-01-08T13:44:32.496Z,15.20
2023-01-08T13:47:02.489Z,19.10
2023-01-08T13:49:43.944Z,14.40
2023-01-08T13:52:33.609Z,15.70
2023-01-08T13:55:12.116Z,18.90
2023-01-08T13:57:44.024Z,16.30
2023-01-08T14:00:21.681Z,17.10
2023-01-08T14:02:49.413Z,16.70
2023-01-08T14:05:23.338Z,16.10
2023-01-08T14:07:51.323Z,16.10
2023-01-08T14:10:19.532Z,16.30
2023-01-08T14:12:48.214Z,16.20
2023-01-08T14:15:26.383Z,16.50
2023-01-08T14:17:55.925Z,14.10
2023-01-08T14:20:31.404Z,13.90
2023-01-08T14:23:00.820Z,14.10
2023-01-08T14:25:29.705Z,16.20
2023-01-08T14:28:00.480Z,14.30
2023-01-08T14:30:29.003Z,19.20
2023-01-08T14:32:57.762Z,17.00
2023-01-08T14:35:35.192Z,20.40
2023-01-08T14:38:03.436Z,20.10
2023-01-08T14:40:42.438Z,25.60
2023-01-08T14:43:14.663Z,26.40
2023-01-08T14:45:49.058Z,25.00
2023-01-08T14:48:28.897Z,25.60
2023-01-08T14:51:04.374Z,22.20
2023-01-08T14:53:42.093Z,26.60
2023-01-08T14:56:19.209Z,27.60
2023-01-08T14:58:47.300Z,27.30
2023-01-08T15:01:19.984Z,25.60
2023-01-08T15:03:50.223Z,25.00
2023-01-08T15:06:29.939Z,28.30
2023-01-08T15:08:59.615Z,30.00
2023-01-08T15:11:31.197Z,29.10
2023-01-08T15:14:00.414Z,33.40
2023-01-08T15:16:37.596Z,32.00
2023-01-08T15:19:11.212Z,28.80
2023-01-08T15:21:41.639Z,30.00
2023-01-08T15:24:23.795Z,31.30
2023-01-08T15:26:52.318Z,32.70
2023-01-08T15:29:27.144Z,38.60
2023-01-08T15:31:54.992Z,37.50
2023-01-08T15:34:22.637Z,35.40
2023-01-08T15:36:50.255Z,31.30
2023-01-08T15:39:17.906Z,36.10
2023-01-08T15:41:45.582Z,33.40
2023-01-08T15:44:13.150Z,35.70
2023-01-08T15:46:40.920Z,37.90
2023-01-08T15:49:08.677Z,36.40
2023-01-08T15:51:41.169Z,31.80
2023-01-08T15:54:12.549Z,35.00
2023-01-08T15:56:40.901Z,36.70
2023-01-08T15:59:08.581Z,50.20
2023-01-08T16:01:36.413Z,40.40
2023-01-08T16:04:04.217Z,43.20
2023-01-08T16:06:31.980Z,31.70
2023-01-08T16:09:00.701Z,34.80
2023-01-08T16:11:28.434Z,38.70
2023-01-08T16:13:56.019Z,39.20
2023-01-08T16:16:23.817Z,35.60
2023-01-08T16:18:53.738Z,36.30
2023-01-08T16:21:21.356Z,35.40
2023-01-08T16:23:49.023Z,44.50
2023-01-08T16:26:16.683Z,44.80
2023-01-08T16:28:44.325Z,49.60
2023-01-08T16:31:12.013Z,48.10
2023-01-08T16:33:39.764Z,45.40
2023-01-08T16:36:08.725Z,47.60
2023-01-08T16:38:36.714Z,41.00
2023-01-08T16:41:05.256Z,45.40
2023-01-08T16:43:40.389Z,42.40
2023-01-08T16:46:12.876Z,41.10
2023-01-08T16:48:44.594Z,49.20
2023-01-08T16:51:12.800Z,38.80
2023-01-08T16:53:40.900Z,42.30
2023-01-08T16:56:08.984Z,45.20
2023-01-08T16:58:37.301Z,47.50
2023-01-08T17:01:09.740Z,55.00
2023-01-08T17:03:38.130Z,55.30
2023-01-08T17:06:07.514Z,50.90
2023-01-08T17:08:36.092Z,52.60
2023-01-08T17:11:34.920Z,57.30
2023-01-08T17:14:02.577Z,57.60
2023-01-08T17:16:30.410Z,42.30
2023-01-08T17:18:58.103Z,45.10
2023-01-08T17:21:25.813Z,43.60
2023-01-08T17:23:53.419Z,43.20
2023-01-08T17:26:21.080Z,61.50
2023-01-08T17:28:48.649Z,66.90
2023-01-08T17:31:19.435Z,67.70
2023-01-08T17:33:49.297Z,65.90
2023-01-08T17:36:19.394Z,53.80
2023-01-08T17:38:47.251Z,50.00
2023-01-08T17:41:14.903Z,49.70
2023-01-08T17:43:42.505Z,43.50
2023-01-08T17:46:10.213Z,37.10
2023-01-08T17:48:37.896Z,30.10
2023-01-08T17:51:07.984Z,29.80
2023-01-08T17:53:36.988Z,21.80
2023-01-08T17:56:04.985Z,16.40
2023-01-08T17:58:32.660Z,16.90
2023-01-08T18:01:00.405Z,21.80
2023-01-08T18:03:31.047Z,15.70
2023-01-08T18:05:58.985Z,14.90
2023-01-08T18:08:26.705Z,18.50
2023-01-08T18:10:54.304Z,18.90
2023-01-08T18:13:21.905Z,16.00
2023-01-08T18:15:50.941Z,16.30
2023-01-08T18:18:18.549Z,16.20
2023-01-08T18:20:46.283Z,12.80
2023-01-08T18:23:13.927Z,19.10
2023-01-08T18:25:41.562Z,17.20
2023-01-08T18:28:09.264Z,15.80
2023-01-08T18:30:36.842Z,14.30
2023-01-08T18:33:04.445Z,16.50
2023-01-08T18:35:32.974Z,15.70
2023-01-08T18:38:00.617Z,14.50
2023-01-08T18:40:28.416Z,12.60
2023-01-08T18:42:56.057Z,15.00
2023-01-08T18:45:23.817Z,17.10
2023-01-08T18:47:53.483Z,16.60
2023-01-08T18:50:21.162Z,16.60
2023-01-08T18:52:48.832Z,14.80
2023-01-08T18:55:16.572Z,15.80
2023-01-08T18:57:44.244Z,16.80
2023-01-08T19:00:12.423Z,15.10
2023-01-08T19:02:40.320Z,17.80
2023-01-08T19:05:08.459Z,14.40
2023-01-08T19:07:36.124Z,17.70
2023-01-08T19:10:04.106Z,17.90
2023-01-08T19:12:31.765Z,17.30
2023-01-08T19:14:59.395Z,15.20
2023-01-08T19:17:30.345Z,15.80
2023-01-08T19:19:58.152Z,18.90
2023-01-08T19:22:25.834Z,17.20
2023-01-08T19:24:54.505Z,17.00
2023-01-08T19:27:23.172Z,17.00
2023-01-08T19:29:51.382Z,18.90
2023-01-08T19:32:19.028Z,19.00
2023-01-08T19:34:46.943Z,18.10
2023-01-08T19:37:14.597Z,17.00
2023-01-08T19:39:42.234Z,16.40
2023-01-08T19:42:12.367Z,16.40
2023-01-08T19:44:40.233Z,18.00
2023-01-08T19:47:08.998Z,19.40
2023-01-08T19:49:37.754Z,15.70
2023-01-08T19:52:05.835Z,19.00
2023-01-08T19:54:34.539Z,15.30
2023-01-08T19:57:02.186Z,17.50
2023-01-08T19:59:29.973Z,16.50
2023-01-08T20:01:57.803Z,16.80
2023-01-08T20:04:25.491Z,19.70
2023-01-08T20:06:53.237Z,13.00
2023-01-08T20:09:20.956Z,18.50
2023-01-08T20:11:48.561Z,18.80
2023-01-08T20:14:16.291Z,16.70
2023-01-08T20:16:43.934Z,18.30
2023-01-08T20:19:12.130Z,19.80
2023-01-08T20:21:40.885Z,25.00
2023-01-08T20:24:11.238Z,23.60
2023-01-08T20:26:39.843Z,25.30
2023-01-08T20:29:08.086Z,20.90
2023-01-08T20:31:36.496Z,24.00
2023-01-08T20:34:06.033Z,20.10
2023-01-08T20:36:35.971Z,21.90
2023-01-08T20:39:07.142Z,22.50
2023-01-08T20:41:35.220Z,23.40
2023-01-08T20:44:04.273Z,20.60
2023-01-08T20:46:33.089Z,21.90
2023-01-08T20:49:04.288Z,21.50
2023-01-08T20:51:34.192Z,20.00
2023-01-08T20:54:03.706Z,17.90
2023-01-08T20:56:31.435Z,18.60
2023-01-08T20:59:01.507Z,22.40
2023-01-08T21:01:31.219Z,22.50
2023-01-08T21:03:59.998Z,22.80
2023-01-08T21:06:30.177Z,21.70
2023-01-08T21:09:00.726Z,21.80
2023-01-08T21:11:30.102Z,19.40
2023-01-08T21:13:57.801Z,19.60
2023-01-08T21:16:28.185Z,19.80
2023-01-08T21:18:57.377Z,27.40
2023-01-08T21:21:30.087Z,28.50
2023-01-08T21:23:58.205Z,25.30
2023-01-08T21:26:26.123Z,33.80
2023-01-08T21:28:53.748Z,26.60
2023-01-08T21:31:25.620Z,24.00
2023-01-08T21:33:55.801Z,21.60
2023-01-08T21:36:27.316Z,19.80
2023-01-08T21:41:32.115Z,20.60
2023-01-08T21:44:00.604Z,22.90
2023-01-08T21:46:28.484Z,21.90
2023-01-08T21:48:56.577Z,25.40
2023-01-08T21:51:24.647Z,18.90
2023-01-08T21:53:52.331Z,23.00
2023-01-08T21:56:20.517Z,21.60
2023-01-08T21:58:48.207Z,18.10
2023-01-08T22:01:15.987Z,22.30
2023-01-08T22:03:43.949Z,20.70
2023-01-08T22:06:11.900Z,21.20
2023-01-08T22:08:39.694Z,18.80
2023-01-08T22:11:09.066Z,17.10
2023-01-08T22:13:36.950Z,19.00
2023-01-08T22:16:07.353Z,22.80
2023-01-08T22:18:36.042Z,21.40
2023-01-08T22:21:08.237Z,19.60
2023-01-08T22:23:36.953Z,19.80
2023-01-08T22:26:06.801Z,18.90
2023-01-08T22:28:34.859Z,18.00
2023-01-08T22:31:09.162Z,23.10
2023-01-08T22:33:38.412Z,21.90
2023-01-08T22:36:08.820Z,22.40
2023-01-08T22:38:41.049Z,35.40
2023-01-08T22:41:15.571Z,44.30
2023-01-08T22:43:43.698Z,27.60
2023-01-08T22:46:16.135Z,26.10
2023-01-08T22:48:44.481Z,20.80
2023-01-08T22:51:12.253Z,24.60
2023-01-08T22:53:40.182Z,18.40
2023-01-08T22:56:09.832Z,23.50
2023-01-08T22:58:39.586Z,21.50
2023-01-08T23:01:11.857Z,18.70
2023-01-08T23:03:40.293Z,18.30
2023-01-08T23:06:09.117Z,14.40
2023-01-08T23:08:38.950Z,19.90
2023-01-08T23:11:07.850Z,18.10
2023-01-08T23:13:36.320Z,17.80
2023-01-08T23:16:05.422Z,17.40
2023-01-08T23:18:33.660Z,20.20
2023-01-08T23:21:09.898Z,17.50
2023-01-08T23:23:37.905Z,16.20
2023-01-08T23:26:12.202Z,13.90
2023-01-08T23:28:39.972Z,16.70
2023-01-08T23:31:13.082Z,17.40
2023-01-08T23:33:40.996Z,17.20
2023-01-08T23:36:09.136Z,14.60
2023-01-08T23:38:36.747Z,17.20
2023-01-08T23:41:06.439Z,18.40
2023-01-08T23:43:36.144Z,15.30
2023-01-08T23:46:05.081Z,15.70
2023-01-08T23:48:33.604Z,15.50
2023-01-08T23:51:01.924Z,14.70
2023-01-08T23:53:29.641Z,14.20
2023-01-08T23:55:57.303Z,13.80
2023-01-08T23:58:25.407Z,14.90
